Horbury, United Kingdom
Current Conditions -  °F | °C
As of 8:50 AM on Monday 20 Oct 2014 (Local Time) from EGNM Reporting Station
Scattered Clouds Scattered Clouds  
Wind Chill: 10°   Ceiling: Unl
Heat Index: 10°   Visibility: 6mi
Dew Point:   Wind: 10mph
Humidity: 94%   Direction: 240°WSW
Pressure: 29.85"   Gusts: NA
Location:  53.66°N, 1.56°W
Report Text: EGNM 200750Z 24009KT 200V270 9999 FEW010 SCT014 10/09 Q1011
Loading
Personal Weather Stations






























Interactive Weather Map
Tropical Storm Tracking
New forecast layout! Learn more

10-Day Weather Forecast

Advertisements
Track Severe Weather on mobile